Eliasville, TX (76481)

2:15 AM CDT on July 30, 2014 (GMT -0500)
SOUTH BEND STATION 1 (KTXSOUTH24) Elev 1056 ft | 33.01 °N, 98.66 °W | Change Station

Current weather conditions updated 15 seconds ago

Mostly Cloudy
Mostly Cloudy
76.8 °F
Feels Like 79 °F
N
2.0
Wind Variable Wind from ESE
Gusts 6.0 mph

Today is forecast to be Much Warmer than yesterday. Partly cloudy, chance of a thunderstorm tonight.

Today
High -- | Low -- °F
--% Chance of Precip.
Yesterday
High -- | Low -- °F
Precip. -- in
6:46 AM 8:35 PM
Waxing Crescent, 10% visible
Pressure 30.02 in
Visibility 10.0 miles
Clouds Mostly Cloudy 11000 ft
Heat Index 79 °F
Dew Point 61 °F
Humidity 58%
Rainfall 0.00 in
Snow Depth Not available.
UV 0 out of 12
Pollen 4.70 out of 12
Air Quality Not available.
Flu Activity Not available.
METAR KRPH 300655Z AUTO 12005KT 10SM BKN110 24/16 A3002 RMK AO2 T02400162

More Conditions Fewer Conditions

Pressure 30.02 in
Visibility 10.0 miles
Clouds Mostly Cloudy 11000 ft
Heat Index 79 °F
Dew Point 61 °F
Humidity 58%
Rainfall 0.00 in
Snow Depth Not available.
UV 0 out of 12
Pollen 4.70 out of 12
Air Quality Not available.
Flu Activity Not available.
METAR KRPH 300655Z AUTO 12005KT 10SM BKN110 24/16 A3002 RMK AO2 T02400162

More Conditions Fewer Conditions

10-Day Weather Forecast

Almanac

Astronomy

Jul. 30, 2014 Rise Set
Actual Time 6:46 AM CDT 8:35 PM CDT
Civil Twilight 6:19 AM CDT 9:02 PM CDT
Nautical Twilight 5:46 AM CDT 9:34 PM CDT
Astronomical Twilight 5:12 AM CDT 10:09 PM CDT
Moon 10:06 AM CDT 10:33 PM CDT
Length of Visible Light 14h 42m
Length of Day
13h 48m
Tomorrow will be 1m 28s shorter.
Waxing Crescent, 10% of the Moon is Illuminated
Today
Waxing Crescent
Aug 3
First Quarter
Aug 10
Full
Aug 17
Last Quarter
Aug 25
New

Today's Extremes

State Highs State Lows

Community

WunderPhotos

Upload Photos

1,739,022 photos uploaded!

WunderBlogs® & News

By Dr. Jeff Masters
Director of Meteorology, Weather Underground
By Kari Strenfel
Meteorologist, Weather Underground
By Christopher C. Burt
Weather Historian, Weather Underground
July 29, 2014
July 29, 2014
July 29, 2014

Nearby

Snow Depth

Station Depth Elevation
No new snow has been reported.

Earthquake Activity

City Distance Mag. Time & Date
No recent earthquake activity has been reported nearby.
Minimum magnitude displayed is 2.5.

Coastal Water Temperatures

Place Temperature
No Stations Reporting

Nearby Weather Stations

Station Location Temp. Heat Index Dew Point Humidity Wind Precip. Elev Updated Type
SOUTH BEND STATION 1, SOUTH BEND, TX 76.8 °F 79 °F 61 °F 58% ESE  at  2.0 mph 0.00 in / hr 1056 ft 2:15 AM CDT Normal
3MP LLC Ranch, Eliasville, TX 77.9 °F 79 °F 58 °F 51% ESE  at  0.9 mph 0.00 in / hr 1117 ft 2:15 AM CDT Rapid Fire
DDR Longhorns Graham, Texas, Graham, TX 75.0 °F 77 °F 60 °F 59% SE  at  2.9 mph 0.00 in / hr 1178 ft 2:15 AM CDT Rapid Fire
The Ranch, Graford, TX 75.6 °F 78 °F 62 °F 63% ESE  at  1.0 mph 0.00 in / hr 1106 ft 2:10 AM CDT Normal

Show More Stations Show Fewer Stations